Flight Track Log - Related Links

Times and Time Zones

All times are in EDT time to prevent confusion due to time zone crossing. See the AAL832 flight status page for this flight to view local times or setup timezone preferences in your user account.

Time Position Orientation Groundspeed Altitude Reporting Facility
EDT Latitude Longitude Course Direction KTS MPH feet Rate Location/Type
Thu 06:08:30 PM 41.9458 -87.9031 180° South 166 191 37,000  Level Chicago Center
Thu 06:09:32 PM 41.9017 -87.8822 161° South 196 226 3,800 -15,048 Descending Chicago Center
Thu 06:10:00 PM 41.7500 -87.7712 166° South  Level Estimated
Thu 06:10:34 PM 41.8200 -87.8558 166° South 242 278 5,900  Level Chicago Center
Thu 06:11:00 PM 41.6236 -87.7678 179° South  Level FlightAware Approximate
Thu 06:11:36 PM 41.7442 -87.8303 166° South 274 315 9,600  Level Chicago Center
Thu 06:12:00 PM 41.5079 -87.7001 166° South  Level Estimated
Thu 06:12:38 PM 41.6583 -87.8019 166° South 313 360 12,900  Level Chicago Center
Thu 06:13:00 PM 41.3920 -87.6327 180° South  Level Estimated
Thu 06:13:40 PM 41.5622 -87.7708 166° South 355 409 14,700  Level Chicago Center
Thu 06:14:42 PM 41.4542 -87.7367 167° South 390 449 17,500 2,419 Climbing Chicago Center
Thu 06:15:44 PM 41.3383 -87.7242 175° South 413 475 19,700 2,419 Climbing Chicago Center
Thu 06:16:46 PM 41.1936 -87.7253 180° South 429 494 22,500 2,419 Climbing Chicago Center
Thu 06:17:48 PM 41.0658 -87.7064 174° South 457 526 24,700 2,016 Climbing Chicago Center
Thu 06:18:51 PM 40.9356 -87.6872 174° South 469 540 26,700 1,872 Climbing Chicago Center
Thu 06:19:53 PM 40.8019 -87.6694 174° South 481 554 28,600 1,742 Climbing Chicago Center
Thu 06:20:55 PM 40.6658 -87.6397 171° South 501 577 30,300 1,839 Climbing Chicago Center
Thu 06:21:57 PM 40.5311 -87.5839 163° South 509 586 32,400 2,129 Climbing Chicago Center
Thu 06:22:59 PM 40.3681 -87.5269 165° South 507 583 34,700 1,742 Climbing Chicago Center
Thu 06:24:01 PM 40.2342 -87.4794 165° South 502 578 36,000 678 Climbing Chicago Center
Thu 06:24:54 PM 40.1050 -87.4369 166° South 504 580 36,000  Level Indianapolis Center
Thu 06:25:56 PM 39.9681 -87.3808 163° South 512 589 36,000  Level Indianapolis Center
Thu 06:26:58 PM 39.8367 -87.2961 154° Southeast 522 601 36,000 48 Level Indianapolis Center
Thu 06:28:00 PM 39.7069 -87.2075 152° Southeast 526 605 36,100 484 Climbing Indianapolis Center
Thu 06:29:02 PM 39.5789 -87.1222 153° Southeast 519 597 37,000 435 Climbing Indianapolis Center
Thu 06:30:04 PM 39.4508 -87.0383 153° Southeast 517 595 37,000  Level Indianapolis Center
Thu 06:31:06 PM 39.3011 -86.9397 153° Southeast 516 594 37,000  Level Indianapolis Center
Thu 06:32:08 PM 39.1736 -86.8561 153° Southeast 515 593 37,000  Level Indianapolis Center
Thu 06:33:10 PM 39.0425 -86.7669 152° Southeast 519 597 37,000  Level Indianapolis Center
Thu 06:34:12 PM 38.9128 -86.6792 152° Southeast 522 601 37,000  Level Indianapolis Center
Thu 06:35:14 PM 38.7828 -86.5925 153° Southeast 520 598 37,000  Level Indianapolis Center
Thu 06:36:16 PM 38.6528 -86.5042 152° Southeast 522 601 37,000  Level Indianapolis Center
Thu 06:37:18 PM 38.5219 -86.4161 152° Southeast 523 602 37,000  Level Indianapolis Center
Thu 06:38:20 PM 38.3931 -86.3294 152° Southeast 518 596 37,000  Level Indianapolis Center
Thu 06:39:23 PM 38.2631 -86.2419 152° Southeast 522 601 37,000  Level Indianapolis Center
Thu 06:41:27 PM 37.9833 -86.0578 153° Southeast 511 588 37,000  Level Indianapolis Center
Thu 06:42:29 PM 37.8578 -85.9756 153° Southeast 505 581 37,000  Level Indianapolis Center
Thu 06:43:31 PM 37.7322 -85.8958 153° Southeast 500 575 37,000  Level Indianapolis Center
Thu 06:44:33 PM 37.6061 -85.8142 153° Southeast 505 581 37,000  Level Indianapolis Center
Thu 06:45:35 PM 37.4800 -85.7331 153° Southeast 507 583 37,000  Level Indianapolis Center
Thu 06:46:37 PM 37.3547 -85.6533 153° Southeast 502 578 37,000  Level Indianapolis Center
Thu 06:47:39 PM 37.2189 -85.5933 161° South 486 559 37,000  Level Indianapolis Center
Thu 06:48:41 PM 37.0861 -85.5517 166° South 485 558 37,000  Level Indianapolis Center
Thu 06:49:43 PM 36.9367 -85.5019 165° South 487 560 37,000  Level Indianapolis Center
Thu 06:50:45 PM 36.8056 -85.4569 165° South 488 562 37,000  Level Indianapolis Center
Thu 06:51:47 PM 36.6725 -85.4128 165° South 493 567 37,000  Level Indianapolis Center
Thu 06:52:49 PM 36.5389 -85.3675 165° South 497 572 37,000  Level Indianapolis Center
Thu 06:53:51 PM 36.3781 -85.3139 165° South 499 574 37,000  Level Indianapolis Center
Thu 06:54:53 PM 36.2442 -85.2703 165° South 499 574 37,000  Level Indianapolis Center
Thu 06:55:55 PM 36.1108 -85.2264 165° South 497 572 37,000  Level Indianapolis Center
Thu 06:56:58 PM 35.9783 -85.1836 165° South 497 572 37,000  Level Indianapolis Center
Thu 06:58:00 PM 35.8244 -85.1328 165° South 505 581 37,000  Level Indianapolis Center
Thu 06:59:05 PM 35.6783 -85.0869 166° South 501 577 37,000  Level Atlanta Center
Thu 07:00:05 PM 35.5578 -85.0472 165° South 501 577 37,000  Level Atlanta Center
Thu 07:01:05 PM 35.4225 -85.0047 166° South 501 577 37,000  Level Atlanta Center
Thu 07:02:05 PM 35.2892 -84.9625 166° South 501 577 37,000  Level Atlanta Center
Thu 07:03:05 PM 35.1561 -84.9178 165° South 501 577 37,000  Level Atlanta Center
Thu 07:04:05 PM 35.0228 -84.8758 166° South 496 571 37,000  Level Atlanta Center
Thu 07:05:05 PM 34.8894 -84.8314 165° South 491 565 37,000  Level Atlanta Center
Thu 07:06:05 PM 34.7561 -84.7897 166° South 491 565 37,000  Level Atlanta Center
Thu 07:07:05 PM 34.6106 -84.7378 164° South 491 565 37,000  Level Atlanta Center
Thu 07:08:05 PM 34.4750 -84.6964 166° South 491 565 37,000  Level Atlanta Center
Thu 07:09:05 PM 34.3417 -84.6553 166° South 491 565 37,000  Level Atlanta Center
Thu 07:10:05 PM 34.2061 -84.6139 166° South 491 565 37,000  Level Atlanta Center
Thu 07:11:05 PM 34.0853 -84.5731 164° South 491 565 37,000  Level Atlanta Center
Thu 07:12:05 PM 33.9497 -84.5347 167° South 491 565 37,000  Level Atlanta Center
Thu 07:13:05 PM 33.7975 -84.4911 167° South 491 565 37,000  Level Atlanta Center
Thu 07:14:05 PM 33.6747 -84.4508 165° South 479 551 37,000  Level Atlanta Center
Thu 07:15:05 PM 33.5433 -84.3978 161° South 485 558 37,000 50 Level Atlanta Center
Thu 07:16:05 PM 33.4161 -84.3450 161° South 490 564 37,100 300 Climbing Atlanta Center
Thu 07:17:05 PM 33.2889 -84.2897 160° South 490 564 37,600 850 Climbing Atlanta Center
Thu 07:18:05 PM 33.1553 -84.2372 162° South 495 570 38,800 750 Climbing Atlanta Center
Thu 07:19:05 PM 33.0386 -84.1900 161° South 495 570 39,100 150 Climbing Atlanta Center
Thu 07:20:05 PM 32.9092 -84.1328 160° South 495 570 39,100  Level Atlanta Center
Thu 07:21:05 PM 32.7778 -84.0808 162° South 500 575 39,100  Level Atlanta Center
Thu 07:22:05 PM 32.6483 -84.0289 161° South 500 575 39,100  Level Atlanta Center
Thu 07:23:05 PM 32.5189 -83.9747 161° South 500 575 39,100  Level Atlanta Center
Thu 07:24:39 PM 32.3150 -83.8906 161° South 496 571 39,100  Level Jacksonville Center
Thu 07:25:39 PM 32.1861 -83.8378 161° South 491 565 39,100  Level Jacksonville Center
Thu 07:26:39 PM 32.0589 -83.7872 161° South 486 559 39,100  Level Jacksonville Center
Thu 07:27:39 PM 31.9319 -83.7347 161° South 486 559 39,100 -50 Level Jacksonville Center
Thu 07:28:39 PM 31.7903 -83.6747 160° South 486 559 39,000 -50 Descending Jacksonville Center
Thu 07:29:39 PM 31.6633 -83.6247 161° South 486 559 39,000 50 Level Jacksonville Center
Thu 07:30:39 PM 31.5278 -83.5725 162° South 500 575 39,100 50 Climbing Jacksonville Center
Thu 07:31:39 PM 31.3986 -83.5231 162° South 500 575 39,100  Level Jacksonville Center
Thu 07:32:39 PM 31.2694 -83.4711 161° South 500 575 39,100  Level Jacksonville Center
Thu 07:33:39 PM 31.1403 -83.4192 161° South 495 570 39,100  Level Jacksonville Center
Thu 07:34:39 PM 31.0111 -83.3678 161° South 495 570 39,100  Level Jacksonville Center
Thu 07:35:39 PM 30.8817 -83.3186 162° South 495 570 39,100 -50 Level Jacksonville Center
Thu 07:36:39 PM 30.7586 -83.2650 159° South 490 564 39,000 -50 Descending Jacksonville Center
Thu 07:37:39 PM 30.6294 -83.1992 156° South 485 558 39,000  Level Jacksonville Center
Thu 07:38:39 PM 30.5022 -83.1361 157° South 492 566 39,000  Level Jacksonville Center
Thu 07:39:39 PM 30.3750 -83.0731 157° South 497 572 39,000  Level Jacksonville Center
Thu 07:40:39 PM 30.2497 -83.0103 157° South 497 572 39,000  Level Jacksonville Center
Thu 07:41:39 PM 30.1203 -82.9742 166° South 492 566 39,000  Level Jacksonville Center
Thu 07:42:39 PM 29.9867 -82.9669 177° South 474 545 39,000  Level Jacksonville Center
Thu 07:43:40 PM 29.8553 -82.9500 174° South 479 551 39,000  Level Jacksonville Center
Thu 07:44:39 PM 29.7236 -82.9356 175° South 479 551 39,000  Level Jacksonville Center
Thu 07:45:39 PM 29.5900 -82.9211 175° South 479 551 39,000  Level Jacksonville Center
Thu 07:46:39 PM 29.4731 -82.9044 173° South 471 542 39,000  Level Jacksonville Center
Thu 07:47:39 PM 29.3417 -82.8878 174° South 471 542 39,000  Level Jacksonville Center
Thu 07:48:39 PM 29.2103 -82.8592 169° South 483 556 39,000  Level Jacksonville Center
Thu 07:49:39 PM 29.0786 -82.8261 168° South 483 556 39,000  Level Jacksonville Center
Thu 07:50:40 PM 28.9450 -82.7953 169° South 483 556 39,000  Level Jacksonville Center
Thu 07:51:39 PM 28.8094 -82.7622 168° South 489 563 39,000  Level Jacksonville Center
Thu 07:52:39 PM 28.6631 -82.7269 168° South 489 563 39,000  Level Jacksonville Center
Thu 07:53:39 PM 28.5275 -82.6942 168° South 489 563 39,000  Level Jacksonville Center
Thu 07:54:39 PM 28.4044 -82.6636 168° South 496 571 39,000  Level Jacksonville Center
Thu 07:55:40 PM 28.2644 -82.6311 168° South 501 577 39,000  Level Jacksonville Center
Thu 07:57:51 PM 27.9603 -82.5542 167° South 509 586 39,000  Level Miami Center
Thu 07:58:51 PM 27.8239 -82.5217 168° South 509 586 39,000 50 Level Miami Center
Thu 07:59:51 PM 27.6731 -82.4836 167° South 498 573 39,100 -50 Climbing Miami Center
Thu 08:00:51 PM 27.5469 -82.4517 167° South 511 588 38,900 -850 Descending Miami Center
Thu 08:01:51 PM 27.4228 -82.3756 151° Southeast 506 582 37,400 -1,650 Descending Miami Center
Thu 08:02:51 PM 27.3039 -82.2647 140° Southeast 517 595 35,600 -1,500 Descending Miami Center
Thu 08:03:51 PM 27.1969 -82.1639 140° Southeast 512 589 34,400 -1,450 Descending Miami Center
Thu 08:04:51 PM 27.0919 -82.0683 141° Southeast 504 580 32,700 -1,850 Descending Miami Center
Thu 08:05:51 PM 26.9969 -81.9825 141° Southeast 496 571 30,700 -2,200 Descending Miami Center
Thu 08:06:51 PM 26.8936 -81.8872 141° Southeast 491 565 28,300 -2,700 Descending Miami Center
Thu 08:07:51 PM 26.7864 -81.7894 141° Southeast 491 565 25,300 -2,850 Descending Miami Center
Thu 08:08:51 PM 26.6831 -81.6944 141° Southeast 491 565 22,600 -2,400 Descending Miami Center
Thu 08:09:51 PM 26.5903 -81.6025 138° Southeast 457 526 20,500 -1,550 Descending Miami Center
Thu 08:10:51 PM 26.4989 -81.5200 141° Southeast 440 506 19,500 -1,100 Descending Miami Center
Thu 08:11:51 PM 26.3975 -81.4256 140° Southeast 452 520 18,300 -1,300 Descending Miami Center
Thu 08:12:51 PM 26.3019 -81.3383 141° Southeast 452 520 16,900 -1,800 Descending Miami Center
Thu 08:13:51 PM 26.2106 -81.2539 140° Southeast 452 520 14,700 -2,350 Descending Miami Center
Thu 08:14:51 PM 26.1211 -81.1719 141° Southeast 438 504 12,200 -2,682 Descending Miami Center
Thu 08:15:16 PM 26.0722 -81.1333 145° Southeast 403 464 10,900 -2,200 Descending Miami Center
Thu 08:15:51 PM 26.0336 -81.0950 138° Southeast 418 481 10,000 -794 Descending Miami Center
Thu 08:16:24 PM 25.9825 -81.0561 146° Southeast 346 398 10,000 -100 Level Miami Center
Thu 08:16:51 PM 25.9603 -81.0300 133° Southeast 381 438 9,900  Descending Miami Center
Thu 08:17:19 PM 25.9214 -81.0008 146° Southeast 285 328 10,000 -100 Climbing Miami Center
Thu 08:17:51 PM 25.9014 -80.9747 130° Southeast 325 374 9,800 -806 Descending Miami Center
Thu 08:18:26 PM 25.8858 -80.9281 110° East 231 266 9,100 -1,100 Descending Miami Center
Thu 08:18:51 PM 25.8889 -80.9006 83° East 246 283 8,700 -982 Descending Miami Center
Thu 08:19:21 PM 25.8836 -80.8611 98° East 231 266 8,200 -1,100 Descending Miami Center
Thu 08:19:51 PM 25.8867 -80.8289 84° East 233 268 7,600 -968 Descending Miami Center
Thu 08:20:23 PM 25.8833 -80.7894 95° East 234 269 7,200 -900 Descending Miami Center
Thu 08:20:51 PM 25.8886 -80.7528 81° East 228 262 6,700 -689 Descending Miami Center
Thu 08:21:24 PM 25.8875 -80.7181 92° East 221 254 6,500 -600 Descending Miami Center
Thu 08:21:51 PM 25.8925 -80.6881 79° East 216 249 6,100 -1,082 Descending Miami Center
Thu 08:22:25 PM 25.8931 -80.6581 89° East 195 224 5,400 -1,200 Descending Miami Center
Thu 08:22:51 PM 25.8939 -80.6258 88° East 205 236 4,900 -885 Descending Miami Center
Thu 08:23:26 PM 25.8947 -80.5936 88° East 191 220 4,500 -700 Descending Miami Center
Thu 08:23:51 PM 25.8975 -80.5706 82° East 193 222 4,200 -492 Descending Miami Center
Thu 08:24:27 PM 25.8942 -80.5406 97° East 173 199 4,000 -300 Descending Miami Center
Thu 08:24:51 PM 25.8989 -80.5175 77° East 176 203 3,900 -393 Descending Miami Center
Thu 08:25:28 PM 25.8869 -80.4872 114° Southeast 179 206 3,600 -551 Descending Miami Center
Thu 08:26:29 PM 25.8631 -80.4403 119° Southeast 173 199 3,000 -590 Descending Miami Center

Login

Don't have an account? Register now (free) for customized features, flight alerts, and more!